Time;durP1;ratioP1;P1;durP2;ratioP2;P2;SDS_P1;SDS_P2;PMS_P1;PMS_P2;Temp;Humidity;BMP_temperature;BMP_pressure;BME280_temperature;BME280_humidity;BME280_pressure;Samples;Min_cycle;Max_cycle;Signal;HPM_P1;HPM_P2
2023/04/20 00:01:13;;;;;;;5.23;2.77;;;9.10;1.00;;;;;;5053889;28;20681;-50
2023/04/20 00:03:39;;;;;;;3.43;2.60;;;9.10;99.90;;;;;;5054122;28;20266;-50
2023/04/20 00:06:06;;;;;;;5.13;3.00;;;9.20;99.90;;;;;;5053629;28;20191;-50
2023/04/20 00:08:32;;;;;;;10.53;2.00;;;9.00;99.90;;;;;;5054066;28;20417;-51
2023/04/20 00:10:57;;;;;;;5.10;2.37;;;9.00;99.90;;;;;;5054264;28;21278;-51
2023/04/20 00:13:23;;;;;;;3.50;2.30;;;9.00;99.90;;;;;;5053773;28;20178;-51
2023/04/20 00:15:49;;;;;;;4.73;2.00;;;9.00;99.90;;;;;;5053918;28;20175;-51
2023/04/20 00:18:15;;;;;;;3.97;2.23;;;9.00;99.90;;;;;;5053854;28;20210;-51
2023/04/20 00:20:41;;;;;;;3.30;2.50;;;9.00;99.90;;;;;;5053712;28;20185;-51
2023/04/20 00:23:07;;;;;;;5.97;2.30;;;8.90;99.90;;;;;;5052579;28;20887;-51
2023/04/20 00:25:32;;;;;;;6.43;2.60;;;8.90;99.90;;;;;;5053312;28;20189;-51
2023/04/20 00:27:58;;;;;;;7.03;2.73;;;8.80;99.90;;;;;;5053637;28;20417;-51
2023/04/20 00:30:24;;;;;;;4.10;2.70;;;8.80;99.90;;;;;;5053747;28;20187;-51
2023/04/20 00:32:49;;;;;;;3.83;1.93;;;8.80;99.90;;;;;;5053582;28;20937;-51
2023/04/20 00:35:15;;;;;;;4.97;2.30;;;8.70;99.90;;;;;;5053528;28;20201;-51
2023/04/20 00:37:41;;;;;;;2.97;2.30;;;8.70;99.90;;;;;;5053628;28;20262;-52
2023/04/20 00:40:07;;;;;;;3.90;1.80;;;8.70;99.90;;;;;;5053122;28;20187;-50
2023/04/20 00:42:33;;;;;;;5.03;2.40;;;8.70;99.90;;;;;;5053459;28;20549;-51
2023/04/20 00:44:59;;;;;;;5.37;2.87;;;8.60;99.90;;;;;;5053241;28;20498;-51
2023/04/20 00:47:24;;;;;;;6.00;2.57;;;8.50;99.90;;;;;;5053038;28;20234;-51
2023/04/20 00:49:52;;;;;;;5.33;2.77;;;8.30;99.90;;;;;;5052968;28;20172;-51
2023/04/20 00:52:18;;;;;;;15.90;2.67;;;8.20;99.90;;;;;;5053358;28;20182;-51
2023/04/20 00:54:44;;;;;;;4.80;2.70;;;8.00;1.00;;;;;;5053022;28;20483;-52
2023/04/20 00:57:12;;;;;;;5.93;3.07;;;8.00;99.90;;;;;;5053359;28;20413;-51
2023/04/20 00:59:39;;;;;;;5.43;2.70;;;8.00;99.90;;;;;;5053035;28;20205;-51
2023/04/20 01:02:06;;;;;;;7.40;3.20;;;7.90;99.90;;;;;;5053161;28;20413;-51
2023/04/20 01:04:34;;;;;;;4.47;2.50;;;7.90;99.90;;;;;;5053146;28;20427;-51
2023/04/20 01:07:00;;;;;;;7.00;2.50;;;7.80;99.90;;;;;;5053091;28;20417;-51
2023/04/20 01:09:26;;;;;;;4.27;2.80;;;7.90;99.90;;;;;;5053169;28;20421;-51
2023/04/20 01:11:52;;;;;;;7.90;3.23;;;7.90;99.90;;;;;;5053342;28;20464;-51
2023/04/20 01:14:17;;;;;;;5.40;2.47;;;7.80;99.90;;;;;;5053141;28;20186;-51
2023/04/20 01:16:43;;;;;;;5.30;2.50;;;7.80;99.90;;;;;;5052849;28;20669;-51
2023/04/20 01:19:09;;;;;;;6.07;2.80;;;7.80;99.90;;;;;;5053133;28;20543;-51
2023/04/20 01:21:35;;;;;;;5.20;3.10;;;7.80;99.90;;;;;;5053317;28;20428;-51
2023/04/20 01:24:00;;;;;;;4.13;2.80;;;7.70;1.00;;;;;;5053110;28;20557;-52
2023/04/20 01:26:26;;;;;;;3.43;2.57;;;7.70;99.90;;;;;;5053313;28;20760;-51
2023/04/20 01:28:51;;;;;;;3.60;2.77;;;7.80;99.90;;;;;;5052618;28;20181;-51
2023/04/20 01:31:17;;;;;;;6.87;3.10;;;7.80;1.00;;;;;;5053176;28;20228;-51
2023/04/20 01:33:43;;;;;;;8.83;2.70;;;7.80;1.00;;;;;;5052893;28;20185;-50
2023/04/20 01:36:09;;;;;;;6.23;2.70;;;7.70;1.00;;;;;;5052990;28;20194;-51
2023/04/20 01:38:35;;;;;;;5.13;3.00;;;7.60;1.00;;;;;;5056212;28;20222;-50
2023/04/20 01:41:03;;;;;;;6.07;2.87;;;7.60;1.00;;;;;;5056787;28;20428;-50
2023/04/20 01:43:29;;;;;;;4.20;2.73;;;7.60;1.00;;;;;;5056579;28;20823;-52
2023/04/20 01:45:54;;;;;;;8.83;3.20;;;7.60;1.00;;;;;;5055179;28;20506;-51
2023/04/20 01:48:20;;;;;;;5.40;2.70;;;7.50;1.00;;;;;;5056384;28;20518;-50
2023/04/20 01:50:50;;;;;;;12.27;3.23;;;7.50;1.00;;;;;;5056563;28;20233;-51
2023/04/20 01:53:15;;;;;;;9.00;3.07;;;7.60;1.00;;;;;;5056625;28;20190;-51
2023/04/20 01:55:41;;;;;;;4.33;2.60;;;7.60;1.00;;;;;;5056462;28;20423;-51
2023/04/20 01:58:07;;;;;;;6.13;3.47;;;7.50;1.00;;;;;;5056172;28;20211;-50
2023/04/20 02:00:32;;;;;;;4.63;2.83;;;7.50;1.00;;;;;;5056341;28;20265;-50
2023/04/20 02:02:58;;;;;;;6.53;2.80;;;7.50;1.00;;;;;;5056335;28;20584;-51
2023/04/20 02:05:24;;;;;;;4.40;3.10;;;7.50;1.00;;;;;;5056074;28;20179;-51
2023/04/20 02:07:50;;;;;;;5.70;3.17;;;7.50;1.00;;;;;;5056012;28;20186;-51
2023/04/20 02:10:16;;;;;;;8.90;3.63;;;7.40;1.00;;;;;;5056197;28;20186;-51
2023/04/20 02:12:41;;;;;;;8.60;3.37;;;7.40;1.00;;;;;;5056236;28;20416;-51
2023/04/20 02:15:08;;;;;;;8.57;3.07;;;7.40;1.00;;;;;;5056246;28;20243;-52
2023/04/20 02:17:35;;;;;;;9.10;3.13;;;7.40;1.00;;;;;;5055538;28;20239;-51
2023/04/20 02:20:04;;;;;;;8.07;3.30;;;7.40;1.00;;;;;;5056023;28;20456;-50
2023/04/20 02:22:33;;;;;;;6.30;3.40;;;7.40;1.00;;;;;;5055347;28;20436;-50
2023/04/20 02:25:00;;;;;;;6.47;3.60;;;7.40;1.00;;;;;;5055724;28;20467;-51
2023/04/20 02:27:26;;;;;;;4.73;3.10;;;7.30;1.00;;;;;;5055670;28;20992;-51
2023/04/20 02:29:52;;;;;;;8.23;3.50;;;7.30;1.00;;;;;;5055932;28;20417;-50
2023/04/20 02:32:18;;;;;;;7.13;3.47;;;7.20;1.00;;;;;;5055374;28;20792;-51
2023/04/20 02:34:43;;;;;;;7.77;3.47;;;7.20;1.00;;;;;;5055590;28;20670;-50
2023/04/20 02:37:09;;;;;;;7.00;3.00;;;7.10;1.00;;;;;;5055441;28;20687;-51
2023/04/20 02:39:35;;;;;;;8.70;3.70;;;7.10;1.00;;;;;;5055348;28;20206;-50
2023/04/20 02:42:00;;;;;;;6.90;3.53;;;7.10;1.00;;;;;;5055702;28;20229;-51
2023/04/20 02:44:26;;;;;;;7.17;3.53;;;7.20;1.00;;;;;;5055602;28;20182;-51
2023/04/20 02:46:51;;;;;;;8.40;3.40;;;7.10;1.00;;;;;;5055011;28;20260;-50
2023/04/20 02:49:17;;;;;;;10.60;3.80;;;7.20;1.00;;;;;;5055012;28;20195;-51
2023/04/20 02:51:42;;;;;;;7.27;3.37;;;7.20;1.00;;;;;;5055437;28;20183;-51
2023/04/20 02:54:08;;;;;;;8.20;3.57;;;7.20;1.00;;;;;;5055196;28;20269;-51
2023/04/20 02:56:34;;;;;;;9.90;4.20;;;7.20;1.00;;;;;;5055500;28;20186;-50
2023/04/20 02:58:59;;;;;;;11.20;3.50;;;7.20;1.00;;;;;;5055102;28;20295;-51
2023/04/20 03:01:25;;;;;;;10.10;3.90;;;7.20;1.00;;;;;;5055259;28;20189;-51
2023/04/20 03:03:51;;;;;;;5.40;3.47;;;7.10;1.00;;;;;;5055159;28;20186;-51
2023/04/20 03:06:16;;;;;;;6.23;3.53;;;7.00;1.00;;;;;;5054938;28;20405;-51
2023/04/20 03:08:42;;;;;;;6.53;3.27;;;7.10;1.00;;;;;;5054980;28;20320;-51
2023/04/20 03:11:08;;;;;;;13.80;4.67;;;7.20;1.00;;;;;;5054832;28;20272;-51
2023/04/20 03:13:33;;;;;;;8.67;3.77;;;7.20;1.00;;;;;;5054699;28;20183;-51
2023/04/20 03:15:59;;;;;;;4.70;3.47;;;7.20;1.00;;;;;;5055048;28;20179;-51
2023/04/20 03:18:24;;;;;;;8.73;3.87;;;7.10;1.00;;;;;;5054434;28;20213;-51
2023/04/20 03:20:51;;;;;;;9.90;3.90;;;7.10;1.00;;;;;;5054748;28;20207;-50
2023/04/20 03:23:20;;;;;;;10.80;3.77;;;7.10;1.00;;;;;;5054601;28;20195;-51
2023/04/20 03:25:46;;;;;;;6.70;4.13;;;7.10;1.00;;;;;;5054606;28;20518;-51
2023/04/20 03:28:12;;;;;;;7.80;3.90;;;7.10;1.00;;;;;;5054668;28;20475;-51
2023/04/20 03:30:37;;;;;;;10.63;3.87;;;7.10;1.00;;;;;;5054536;28;20418;-51
2023/04/20 03:33:03;;;;;;;7.83;3.37;;;7.00;1.00;;;;;;5054707;28;20270;-51
2023/04/20 03:35:29;;;;;;;16.73;4.10;;;6.90;1.00;;;;;;5053978;28;20201;-51
2023/04/20 03:37:54;;;;;;;9.93;3.80;;;6.90;1.00;;;;;;5054277;28;20260;-51
2023/04/20 03:40:20;;;;;;;6.33;3.73;;;6.80;1.00;;;;;;5054492;28;20599;-51
2023/04/20 03:42:45;;;;;;;8.27;4.37;;;6.70;1.00;;;;;;5054243;28;20175;-51
2023/04/20 03:45:12;;;;;;;10.87;4.20;;;6.70;1.00;;;;;;5054224;28;20182;-51
2023/04/20 03:47:37;;;;;;;8.73;4.77;;;6.70;1.00;;;;;;5053824;28;20226;-53
2023/04/20 03:50:03;;;;;;;13.03;4.37;;;6.60;1.00;;;;;;5054107;28;20966;-51
2023/04/20 03:52:29;;;;;;;12.33;4.83;;;6.60;1.00;;;;;;5054128;28;20186;-51
2023/04/20 03:54:54;;;;;;;9.37;4.53;;;6.60;1.00;;;;;;5054130;28;20496;-50
2023/04/20 03:57:20;;;;;;;14.00;5.00;;;6.50;34.70;;;;;;5054295;28;20178;-51
2023/04/20 03:59:46;;;;;;;14.80;4.97;;;6.40;96.30;;;;;;5053448;28;20671;-51
2023/04/20 04:02:12;;;;;;;9.50;4.90;;;6.30;99.90;;;;;;5053826;28;20183;-51
2023/04/20 04:04:38;;;;;;;9.97;4.90;;;6.30;99.90;;;;;;5053629;28;20618;-50
2023/04/20 04:07:04;;;;;;;8.20;4.70;;;6.30;99.90;;;;;;5053734;28;20502;-51
2023/04/20 04:09:29;;;;;;;12.00;4.70;;;6.20;99.90;;;;;;5054003;28;20499;-50
2023/04/20 04:11:56;;;;;;;11.20;5.20;;;6.20;99.90;;;;;;5053824;28;20276;-50
2023/04/20 04:14:21;;;;;;;14.23;4.80;;;6.20;1.00;;;;;;5053602;28;20190;-51
2023/04/20 04:16:47;;;;;;;15.03;5.70;;;6.10;1.00;;;;;;5053397;28;20415;-51
2023/04/20 04:19:12;;;;;;;7.87;4.83;;;6.10;59.40;;;;;;5053936;28;20293;-50
2023/04/20 04:21:38;;;;;;;16.23;6.73;;;6.10;99.90;;;;;;5053625;28;20225;-51
2023/04/20 04:24:04;;;;;;;13.00;6.00;;;6.20;99.90;;;;;;5053499;28;20182;-50
2023/04/20 04:26:30;;;;;;;10.40;5.47;;;6.10;99.90;;;;;;5053509;28;20189;-50
2023/04/20 04:28:56;;;;;;;12.23;5.43;;;6.10;99.90;;;;;;5053626;28;20243;-50
2023/04/20 04:31:23;;;;;;;10.00;5.30;;;6.00;1.00;;;;;;5053784;28;20817;-50
2023/04/20 04:33:49;;;;;;;11.50;5.47;;;6.00;1.00;;;;;;5053350;28;20424;-50
2023/04/20 04:36:14;;;;;;;13.43;5.33;;;6.00;1.00;;;;;;5053499;28;20405;-53
2023/04/20 04:38:43;;;;;;;15.47;5.87;;;5.90;99.90;;;;;;5053542;28;20234;-50
2023/04/20 04:41:11;;;;;;;14.00;5.47;;;6.00;99.90;;;;;;5053508;28;20541;-50
2023/04/20 04:43:38;;;;;;;13.33;5.70;;;6.00;1.00;;;;;;5053464;28;20417;-50
2023/04/20 04:46:08;;;;;;;13.90;6.13;;;6.00;1.00;;;;;;5053090;28;20419;-50
2023/04/20 04:48:34;;;;;;;11.67;5.40;;;6.10;99.90;;;;;;5053058;28;20564;-50
2023/04/20 04:51:01;;;;;;;17.27;6.73;;;6.10;8.50;;;;;;5053437;28;20421;-51
2023/04/20 04:53:26;;;;;;;11.63;6.77;;;6.10;99.90;;;;;;5053578;28;20916;-50
2023/04/20 04:55:52;;;;;;;17.17;7.63;;;6.10;99.90;;;;;;5053443;28;20417;-50
2023/04/20 04:58:17;;;;;;;11.20;5.93;;;6.10;1.00;;;;;;5053128;28;20202;-51
2023/04/20 05:00:43;;;;;;;13.80;6.40;;;6.10;99.90;;;;;;5053275;28;20689;-50
2023/04/20 05:03:08;;;;;;;22.10;7.03;;;6.10;1.00;;;;;;5053331;28;20240;-50
2023/04/20 05:05:34;;;;;;;12.10;6.00;;;6.20;1.00;;;;;;5053051;28;20258;-50
2023/04/20 05:08:00;;;;;;;12.20;6.30;;;6.10;1.00;;;;;;5053299;28;20187;-50
2023/04/20 05:10:25;;;;;;;14.93;6.10;;;6.00;1.00;;;;;;5053152;28;20555;-51
2023/04/20 05:12:51;;;;;;;20.17;6.23;;;6.00;1.00;;;;;;5055190;28;20705;-50
2023/04/20 05:15:17;;;;;;;13.60;6.67;;;6.00;99.90;;;;;;5057400;28;20265;-51
2023/04/20 05:17:43;;;;;;;16.60;6.50;;;6.00;1.00;;;;;;5056947;28;20178;-51
2023/04/20 05:20:10;;;;;;;22.83;7.30;;;6.00;99.90;;;;;;5057270;28;20832;-50
2023/04/20 05:22:36;;;;;;;15.17;6.67;;;6.00;1.00;;;;;;5057307;28;20197;-50
2023/04/20 05:25:03;;;;;;;11.23;5.63;;;6.00;1.00;;;;;;5057022;28;20417;-52
2023/04/20 05:27:28;;;;;;;13.67;6.70;;;6.10;1.00;;;;;;5056955;28;20429;-52
2023/04/20 05:29:54;;;;;;;14.30;6.50;;;6.10;99.90;;;;;;5056438;28;20416;-50
2023/04/20 05:32:19;;;;;;;15.10;6.67;;;6.10;99.90;;;;;;5056781;28;20179;-50
2023/04/20 05:34:45;;;;;;;14.03;7.40;;;6.10;99.90;;;;;;5056685;28;20267;-50
2023/04/20 05:37:10;;;;;;;15.57;6.90;;;6.20;1.00;;;;;;5056541;28;20186;-51
2023/04/20 05:39:36;;;;;;;19.57;6.57;;;6.20;1.00;;;;;;5056676;28;20210;-50
2023/04/20 05:42:02;;;;;;;16.43;7.67;;;6.20;99.90;;;;;;5056847;28;20601;-50
2023/04/20 05:44:27;;;;;;;20.57;7.90;;;6.20;99.90;;;;;;5056400;28;20189;-50
2023/04/20 05:46:53;;;;;;;13.70;7.30;;;6.20;24.30;;;;;;5056356;28;20560;-50
2023/04/20 05:49:18;;;;;;;19.10;7.60;;;6.20;99.90;;;;;;5056872;28;20186;-49
2023/04/20 05:51:44;;;;;;;15.23;6.90;;;6.30;99.90;;;;;;5056644;28;20197;-50
2023/04/20 05:54:09;;;;;;;20.23;7.23;;;6.30;40.70;;;;;;5056265;28;20202;-50
2023/04/20 05:56:35;;;;;;;15.70;7.33;;;6.20;1.00;;;;;;5056474;28;20187;-49
2023/04/20 05:59:01;;;;;;;24.90;8.13;;;6.30;1.00;;;;;;5056412;28;20539;-49
2023/04/20 06:01:26;;;;;;;18.87;7.10;;;6.30;99.90;;;;;;5056205;28;20187;-50
2023/04/20 06:03:52;;;;;;;14.97;7.13;;;6.30;99.90;;;;;;5056296;28;20640;-50
2023/04/20 06:06:17;;;;;;;16.50;8.03;;;6.30;99.90;;;;;;5056426;28;20569;-50
2023/04/20 06:08:43;;;;;;;16.13;8.07;;;6.30;99.90;;;;;;5056071;28;20202;-49
2023/04/20 06:11:09;;;;;;;22.37;7.67;;;6.30;99.90;;;;;;5055713;28;20179;-49
2023/04/20 06:13:34;;;;;;;19.93;7.80;;;6.30;99.90;;;;;;5056209;28;20256;-49
2023/04/20 06:16:00;;;;;;;17.03;7.23;;;6.30;99.90;;;;;;5056309;28;20174;-49
2023/04/20 06:18:25;;;;;;;14.10;7.87;;;6.30;99.90;;;;;;5055995;28;20213;-50
2023/04/20 06:20:51;;;;;;;19.27;7.40;;;6.30;1.00;;;;;;5055690;28;20178;-50
2023/04/20 06:23:16;;;;;;;22.20;9.17;;;6.30;1.00;;;;;;5055030;28;20175;-50
2023/04/20 06:25:42;;;;;;;17.23;8.40;;;6.40;99.90;;;;;;5055919;28;20280;-49
2023/04/20 06:28:08;;;;;;;17.03;8.10;;;6.40;99.90;;;;;;5055686;28;20186;-49
2023/04/20 06:30:34;;;;;;;17.83;7.97;;;6.50;1.00;;;;;;5055588;28;20913;-49
2023/04/20 06:33:01;;;;;;;19.27;7.90;;;6.50;1.00;;;;;;5055321;28;20594;-49
2023/04/20 06:35:27;;;;;;;16.30;8.67;;;6.60;1.00;;;;;;5055268;28;20901;-49
2023/04/20 06:37:55;;;;;;;19.83;7.73;;;6.60;99.90;;;;;;5055462;28;20509;-49
2023/04/20 06:40:20;;;;;;;17.63;7.63;;;6.60;99.90;;;;;;5055574;28;20424;-49
2023/04/20 06:42:46;;;;;;;18.30;8.43;;;6.60;99.90;;;;;;5055417;28;20415;-50
2023/04/20 06:45:11;;;;;;;22.33;7.97;;;6.70;49.20;;;;;;5055753;28;20191;-49
2023/04/20 06:47:37;;;;;;;15.70;7.00;;;6.70;99.90;;;;;;5055375;28;20237;-49
2023/04/20 06:50:08;;;;;;;16.63;7.63;;;6.70;99.90;;;;;;5055662;28;20186;-50
2023/04/20 06:52:38;;;;;;;16.57;7.30;;;6.80;99.90;;;;;;5055730;28;20225;-49
2023/04/20 06:55:03;;;;;;;17.07;8.20;;;6.90;99.90;;;;;;5055695;28;20827;-50
2023/04/20 06:57:29;;;;;;;17.80;7.43;;;6.90;1.00;;;;;;5054951;28;20507;-49
2023/04/20 06:59:55;;;;;;;18.23;8.30;;;6.90;99.90;;;;;;5055122;28;21032;-49
2023/04/20 07:02:20;;;;;;;15.50;8.40;;;6.80;1.00;;;;;;5055370;28;20182;-49
2023/04/20 07:04:46;;;;;;;14.73;8.50;;;6.80;1.00;;;;;;5055120;28;20585;-49
2023/04/20 07:07:11;;;;;;;16.00;7.93;;;6.80;59.10;;;;;;5055326;28;20186;-49
2023/04/20 07:09:37;;;;;;;19.27;8.70;;;6.80;99.90;;;;;;5054803;28;20657;-49
2023/04/20 07:12:02;;;;;;;16.77;7.67;;;6.80;1.00;;;;;;5055212;28;20190;-49
2023/04/20 07:14:28;;;;;;;21.10;8.67;;;6.80;1.00;;;;;;5055117;28;20181;-49
2023/04/20 07:16:54;;;;;;;19.27;10.00;;;6.80;70.20;;;;;;5054758;28;20217;-49
2023/04/20 07:19:20;;;;;;;19.43;8.57;;;6.90;91.70;;;;;;5054558;28;20264;-51
2023/04/20 07:21:45;;;;;;;18.57;9.10;;;6.90;1.00;;;;;;5054772;28;20418;-49
2023/04/20 07:24:11;;;;;;;15.57;7.83;;;6.90;99.90;;;;;;5054995;28;20417;-49
2023/04/20 07:26:37;;;;;;;23.70;8.73;;;6.90;1.00;;;;;;5054903;28;20179;-50
2023/04/20 07:29:02;;;;;;;18.20;8.77;;;6.90;99.90;;;;;;5054888;28;20197;-51
2023/04/20 07:31:28;;;;;;;22.73;7.87;;;6.90;99.90;;;;;;5054270;28;20500;-49
2023/04/20 07:33:54;;;;;;;19.97;8.30;;;6.90;1.00;;;;;;5054429;28;20179;-49
2023/04/20 07:36:21;;;;;;;21.10;8.70;;;6.80;1.00;;;;;;5053864;28;20182;-49
2023/04/20 07:38:47;;;;;;;23.20;9.17;;;6.80;1.00;;;;;;5054300;28;20674;-49
2023/04/20 07:41:14;;;;;;;20.57;8.80;;;6.80;1.00;;;;;;5054697;28;20504;-50
2023/04/20 07:43:40;;;;;;;16.23;8.50;;;6.80;1.00;;;;;;5054481;28;20414;-49
2023/04/20 07:46:06;;;;;;;23.53;9.40;;;6.70;99.90;;;;;;5054774;28;20506;-49
2023/04/20 07:48:35;;;;;;;22.73;10.07;;;6.70;1.00;;;;;;5054354;28;20659;-49
2023/04/20 07:51:01;;;;;;;21.90;10.17;;;6.70;1.00;;;;;;5054268;28;20187;-49
2023/04/20 07:53:28;;;;;;;20.30;10.37;;;6.70;1.00;;;;;;5054191;28;20416;-49
2023/04/20 07:55:53;;;;;;;25.30;10.60;;;6.80;99.90;;;;;;5054270;28;20251;-49
2023/04/20 07:58:20;;;;;;;26.60;10.40;;;6.80;99.90;;;;;;5054289;28;20459;-49
2023/04/20 08:00:46;;;;;;;27.40;10.60;;;6.90;1.00;;;;;;5053803;28;20200;-49
2023/04/20 08:03:12;;;;;;;17.07;8.90;;;6.80;99.90;;;;;;5054173;28;20808;-49
2023/04/20 08:05:39;;;;;;;26.00;9.50;;;6.80;1.00;;;;;;5054070;28;20747;-49
2023/04/20 08:08:05;;;;;;;26.50;11.13;;;6.80;99.90;;;;;;5053812;28;20508;-49
2023/04/20 08:10:31;;;;;;;29.80;12.27;;;6.80;99.90;;;;;;5053835;28;20504;-48
2023/04/20 08:12:57;;;;;;;20.33;10.00;;;6.80;99.90;;;;;;5053768;28;20623;-49
2023/04/20 08:15:23;;;;;;;23.30;10.17;;;6.90;1.00;;;;;;5053874;28;20206;-49
2023/04/20 08:17:48;;;;;;;26.00;10.97;;;6.90;1.00;;;;;;5053511;28;20940;-49
2023/04/20 08:20:14;;;;;;;24.33;10.17;;;6.90;1.00;;;;;;5053931;28;20271;-49
2023/04/20 08:22:39;;;;;;;16.00;9.37;;;7.00;1.00;;;;;;5053268;28;20530;-49
2023/04/20 08:25:05;;;;;;;19.10;10.60;;;7.00;1.00;;;;;;5053786;28;20193;-49
2023/04/20 08:27:31;;;;;;;16.10;9.07;;;7.00;1.00;;;;;;5053585;28;20183;-49
2023/04/20 08:29:56;;;;;;;24.47;9.90;;;7.00;1.00;;;;;;5053804;28;20682;-49
2023/04/20 08:32:25;;;;;;;21.57;10.17;;;6.90;99.90;;;;;;5053817;28;20182;-49
2023/04/20 08:34:51;;;;;;;20.03;9.63;;;6.90;99.90;;;;;;5053445;28;20193;-49
2023/04/20 08:37:17;;;;;;;16.60;9.00;;;6.80;99.90;;;;;;5053533;28;20423;-49
2023/04/20 08:39:42;;;;;;;21.77;9.57;;;6.90;1.00;;;;;;5053281;28;20544;-48
2023/04/20 08:42:08;;;;;;;22.13;9.83;;;6.90;1.00;;;;;;5053830;28;20182;-49
2023/04/20 08:44:35;;;;;;;20.93;10.47;;;6.90;1.00;;;;;;5053162;28;20179;-48
2023/04/20 08:47:02;;;;;;;19.07;9.30;;;7.00;1.00;;;;;;5046785;28;20189;-49
2023/04/20 08:49:29;;;;;;;19.67;9.60;;;7.00;1.00;;;;;;5052981;28;20398;-48
2023/04/20 08:51:55;;;;;;;22.17;10.20;;;7.00;1.00;;;;;;5053655;28;20417;-48
2023/04/20 08:54:20;;;;;;;21.63;10.13;;;7.20;1.00;;;;;;5053121;28;20414;-48
2023/04/20 08:56:47;;;;;;;21.30;9.80;;;7.20;1.00;;;;;;5053539;28;20193;-48
2023/04/20 08:59:13;;;;;;;20.03;9.90;;;7.40;1.00;;;;;;5053410;28;20206;-48
2023/04/20 09:01:43;;;;;;;18.63;9.37;;;7.40;1.00;;;;;;5053229;28;20920;-49
2023/04/20 09:04:22;;;;;;;17.43;9.37;;;7.50;99.90;;;;;;5052849;28;20826;-48
2023/04/20 09:06:50;;;;;;;17.07;8.70;;;7.70;1.00;;;;;;5053097;28;20408;-49
2023/04/20 09:09:17;;;;;;;21.17;10.13;;;7.90;99.90;;;;;;5053250;28;20515;-48
2023/04/20 09:11:43;;;;;;;17.40;9.83;;;8.00;99.90;;;;;;5053236;28;20419;-49
2023/04/20 09:14:17;;;;;;;22.60;9.27;;;8.30;1.00;;;;;;5053168;28;20471;-49
2023/04/20 09:16:52;;;;;;;24.60;12.63;;;8.50;1.00;;;;;;5053181;28;20402;-49
2023/04/20 09:19:22;;;;;;;19.33;11.20;;;8.50;99.90;;;;;;5053465;28;20504;-48
2023/04/20 09:21:49;;;;;;;17.33;8.93;;;8.50;24.90;;;;;;5052942;28;20429;-49
2023/04/20 09:24:15;;;;;;;17.77;8.80;;;8.60;99.90;;;;;;5052985;28;20775;-49
2023/04/20 09:26:41;;;;;;;14.73;8.07;;;8.80;42.50;;;;;;5053123;28;20418;-48
2023/04/20 09:29:20;;;;;;;24.30;10.13;;;8.80;99.90;;;;;;5053052;28;20186;-49
2023/04/20 09:31:47;;;;;;;14.10;8.90;;;8.70;99.90;;;;;;5052958;28;20187;-48
2023/04/20 09:34:13;;;;;;;18.00;9.77;;;8.70;99.90;;;;;;5052947;28;20433;-48
2023/04/20 09:36:49;;;;;;;19.27;9.23;;;8.70;99.90;;;;;;5053279;28;20429;-48
2023/04/20 09:39:22;;;;;;;14.20;9.40;;;8.70;1.00;;;;;;5053152;28;20990;-48
2023/04/20 09:41:49;;;;;;;20.43;9.70;;;8.60;99.90;;;;;;5052998;28;20513;-49
2023/04/20 09:44:16;;;;;;;15.13;9.03;;;8.40;99.90;;;;;;5052615;28;20520;-48
2023/04/20 09:46:43;;;;;;;18.90;9.40;;;8.30;99.90;;;;;;5052416;28;20496;-49
2023/04/20 09:49:10;;;;;;;16.33;10.10;;;8.10;99.90;;;;;;5052609;28;20527;-48
2023/04/20 09:51:40;;;;;;;17.53;9.53;;;8.00;1.00;;;;;;5052689;28;20929;-49
2023/04/20 09:54:06;;;;;;;15.70;9.60;;;8.00;1.00;;;;;;5052652;28;21143;-48
2023/04/20 09:56:33;;;;;;;18.48;9.95;;;8.10;1.00;;;;;;5052494;28;20494;-49
2023/04/20 09:59:00;;;;;;;14.97;9.70;;;8.20;1.00;;;;;;5054795;28;20591;-50
2023/04/20 10:01:33;;;;;;;18.23;9.50;;;8.40;1.00;;;;;;5056087;28;20428;-50
2023/04/20 10:04:00;;;;;;;15.50;9.50;;;8.60;99.90;;;;;;5056440;28;20413;-49
2023/04/20 10:06:27;;;;;;;17.50;10.70;;;8.80;37.90;;;;;;5056256;28;20429;-50
2023/04/20 10:08:53;;;;;;;19.83;10.50;;;9.40;1.00;;;;;;5055994;28;20499;-49
2023/04/20 10:11:36;;;;;;;16.03;10.00;;;9.90;50.20;;;;;;5056333;28;20416;-49
2023/04/20 10:14:23;;;;;;;19.60;10.20;;;10.40;89.10;;;;;;5056272;28;20449;-50
2023/04/20 10:17:03;;;;;;;21.83;8.20;;;10.90;1.00;;;;;;5056071;28;20413;-49
2023/04/20 10:19:43;;;;;;;18.60;8.80;;;10.90;99.90;;;;;;5055810;28;20472;-49
2023/04/20 10:22:11;;;;;;;16.33;8.30;;;10.50;99.90;;;;;;5055884;28;20474;-49
2023/04/20 10:24:37;;;;;;;14.20;8.47;;;10.30;99.90;;;;;;5055655;28;20418;-49
2023/04/20 10:27:03;;;;;;;16.90;8.50;;;10.00;99.90;;;;;;5055870;28;20500;-49
2023/04/20 10:29:30;;;;;;;14.60;8.30;;;9.90;99.90;;;;;;5055844;28;20424;-49
2023/04/20 10:31:56;;;;;;;16.50;8.80;;;9.70;99.90;;;;;;5055925;28;20475;-49
2023/04/20 10:34:33;;;;;;;17.23;8.87;;;9.60;99.90;;;;;;5056085;28;20782;-49
2023/04/20 10:37:12;;;;;;;14.37;8.10;;;9.70;1.00;;;;;;5055468;28;20435;-49
2023/04/20 10:39:45;;;;;;;19.20;8.90;;;9.70;99.90;;;;;;5055883;28;20445;-50
2023/04/20 10:42:11;;;;;;;20.57;9.47;;;9.80;99.90;;;;;;5055998;28;20421;-49
2023/04/20 10:44:53;;;;;;;15.93;8.10;;;9.70;99.90;;;;;;5055273;28;20425;-49
2023/04/20 10:47:30;;;;;;;13.40;8.43;;;9.60;99.90;;;;;;5055802;28;20465;-49
2023/04/20 10:50:10;;;;;;;18.10;8.90;;;9.60;1.00;;;;;;5055507;28;21010;-49
2023/04/20 10:52:37;;;;;;;11.83;7.40;;;9.80;1.00;;;;;;5055305;28;21124;-49
2023/04/20 10:55:04;;;;;;;12.50;7.63;;;9.90;1.00;;;;;;5055296;28;20420;-49
2023/04/20 10:57:30;;;;;;;15.17;8.67;;;10.00;99.90;;;;;;5055257;28;20428;-49
2023/04/20 10:59:55;;;;;;;17.07;9.00;;;10.00;99.90;;;;;;5055075;28;20491;-49
2023/04/20 11:02:21;;;;;;;19.83;8.80;;;10.20;99.90;;;;;;5055254;28;20587;-49
2023/04/20 11:04:46;;;;;;;19.27;8.40;;;10.40;99.90;;;;;;5054992;28;20179;-50
2023/04/20 11:07:12;;;;;;;14.93;7.40;;;10.70;99.90;;;;;;5055236;28;20929;-49
2023/04/20 11:09:38;;;;;;;13.17;7.90;;;10.70;99.90;;;;;;5055009;28;20550;-49
2023/04/20 11:12:05;;;;;;;19.33;9.63;;;10.50;96.20;;;;;;5055291;28;20186;-49
2023/04/20 11:14:42;;;;;;;15.90;8.50;;;10.30;99.90;;;;;;5054632;28;20519;-50
2023/04/20 11:17:07;;;;;;;13.57;8.03;;;10.30;99.90;;;;;;5054917;28;20403;-49
2023/04/20 11:19:34;;;;;;;15.90;8.63;;;10.20;99.90;;;;;;5055183;28;20507;-49
2023/04/20 11:22:02;;;;;;;18.27;8.60;;;10.10;99.90;;;;;;5054896;28;20236;-49
2023/04/20 11:24:36;;;;;;;17.77;9.13;;;9.90;99.90;;;;;;5054643;28;20422;-49
2023/04/20 11:27:03;;;;;;;15.37;9.67;;;9.90;99.90;;;;;;5054872;28;20406;-49
2023/04/20 11:29:37;;;;;;;22.83;10.73;;;9.80;99.90;;;;;;5054219;28;20434;-49
2023/04/20 11:32:05;;;;;;;14.53;8.13;;;9.80;99.90;;;;;;5054527;28;20405;-49
2023/04/20 11:34:34;;;;;;;17.40;9.60;;;9.80;99.90;;;;;;5054545;28;20487;-49
2023/04/20 11:37:17;;;;;;;14.93;8.80;;;9.80;99.90;;;;;;5054559;28;20432;-51
2023/04/20 11:39:43;;;;;;;19.60;10.07;;;9.60;99.90;;;;;;5054217;28;21020;-49
2023/04/20 11:42:09;;;;;;;17.50;9.10;;;9.60;99.90;;;;;;5054678;28;20417;-50
2023/04/20 11:44:35;;;;;;;18.07;10.30;;;9.50;99.90;;;;;;5054827;28;20550;-49
2023/04/20 11:47:01;;;;;;;19.60;10.80;;;9.50;99.90;;;;;;5054203;28;20183;-49
2023/04/20 11:49:28;;;;;;;21.27;13.33;;;9.40;99.90;;;;;;5054074;28;20403;-49
2023/04/20 11:51:54;;;;;;;18.90;13.63;;;9.40;99.90;;;;;;5054014;28;20276;-49
2023/04/20 11:54:20;;;;;;;18.23;12.03;;;9.50;99.90;;;;;;5054099;28;20476;-49
2023/04/20 11:56:46;;;;;;;23.30;12.40;;;9.50;99.90;;;;;;5054255;28;20414;-49
2023/04/20 11:59:18;;;;;;;17.67;12.50;;;9.50;99.90;;;;;;5054069;28;20457;-49
2023/04/20 12:01:44;;;;;;;18.00;12.27;;;9.50;99.90;;;;;;5054394;28;20190;-49
2023/04/20 12:04:10;;;;;;;24.50;13.70;;;9.60;99.90;;;;;;5054018;28;20413;-49
2023/04/20 12:06:35;;;;;;;20.57;12.80;;;9.60;99.90;;;;;;5054022;28;20225;-49
2023/04/20 12:09:01;;;;;;;19.43;13.20;;;9.60;99.90;;;;;;5054097;28;20186;-49
2023/04/20 12:11:26;;;;;;;17.60;11.63;;;9.40;99.90;;;;;;5053984;28;20531;-49
2023/04/20 12:13:53;;;;;;;25.03;12.37;;;9.40;99.90;;;;;;5054096;28;20312;-50
2023/04/20 12:16:19;;;;;;;19.10;11.70;;;9.30;1.00;;;;;;5053954;28;20666;-50
2023/04/20 12:18:45;;;;;;;18.40;11.27;;;9.30;1.00;;;;;;5053500;28;20504;-50
2023/04/20 12:21:10;;;;;;;18.40;11.07;;;9.30;99.90;;;;;;5053454;28;20418;-49
2023/04/20 12:23:36;;;;;;;20.27;12.90;;;9.20;99.90;;;;;;5053635;28;20187;-49
2023/04/20 12:26:03;;;;;;;19.33;12.60;;;9.10;99.90;;;;;;5053811;28;20183;-50
2023/04/20 12:28:29;;;;;;;20.67;12.30;;;9.10;99.90;;;;;;5053739;28;20230;-50
2023/04/20 12:30:55;;;;;;;15.90;11.60;;;9.10;99.90;;;;;;5053597;28;20417;-49
2023/04/20 12:33:21;;;;;;;23.33;12.90;;;9.00;99.90;;;;;;5053652;28;20409;-50
2023/04/20 12:35:46;;;;;;;23.03;12.67;;;8.90;1.00;;;;;;5053592;28;20178;-50
2023/04/20 12:38:12;;;;;;;20.23;12.50;;;8.90;65.70;;;;;;5053540;28;20209;-50
2023/04/20 12:40:37;;;;;;;21.70;12.93;;;8.90;99.90;;;;;;5053629;28;20212;-49
2023/04/20 12:43:04;;;;;;;22.97;13.70;;;8.90;99.90;;;;;;5053117;28;20183;-49
2023/04/20 12:45:30;;;;;;;22.23;12.87;;;8.80;99.90;;;;;;5053552;28;20250;-49
2023/04/20 12:47:57;;;;;;;20.80;13.57;;;8.90;1.00;;;;;;5053379;28;20974;-50
2023/04/20 12:50:23;;;;;;;23.80;13.57;;;9.00;1.00;;;;;;5053577;28;20206;-49